HESH/SSH METAR and TAF weather

Enter ICAO airport designator
Station Type Date Time Source
HESH METAR 2024/07/13 03:00 UTC NOAA

HESH 130300Z 34010KT CAVOK 34/14 Q1004 NOSIG


Station Type Date Time Source
HESH Decoded METAR 2024/07/13 03:00 UTC NOAA

Sharm El Sheikhintl, Egypt (HESH) 27-58N 034-23E
Jul 12, 2024 - 11:00 PM EDT / 2024.07.13 0300 UTC
Wind: from the NNW (340 degrees) at 12 MPH (10 KT):0
Visibility: greater than 7 mile(s):0
Temperature: 93 F (34 C)
Dew Point: 57 F (14 C)
Relative Humidity: 30%
Pressure (altimeter): 29.65 in. Hg (1004 hPa)
ob: HESH 130300Z 34010KT CAVOK 34/14 Q1004 NOSIG
cycle: 3

Station Type Date Time Source
HESH TAF 2024/07/13 06:21 UTC NOAA